<?xml version="1.0" encoding="UTF-8" standalone="no" ?>
<gpx xmlns="http://www.topografix.com/GPX/1/1" xmlns:xsi="http://www.w3.org/2001/XMLSchema-instance" xsi:schemaLocation="http://www.topografix.com/GPX/1/1 http://www.topografix.com/GPX/1/1/gpx.xsd" version="1.1" creator="VisuGPX - https://www.visugpx.com">
  <metadata>
    <name>jeanloup01</name>
    <desc><![CDATA[test gpx rando jean loup DDDDDDDDDDDDDDDDDDDDDDDDDDD]]></desc>
  </metadata>
  <trk>
    <name><![CDATA[8265902-Quincié Lande]]></name>
    <trkseg>
      <trkpt lat="46.11873" lon="4.61526">
        <ele>321</ele>
        <time>2018-03-13T11:24:12Z</time>
      </trkpt>
      <trkpt lat="46.11789" lon="4.61504">
        <ele>321</ele>
        <time>2018-03-13T11:25:12Z</time>
      </trkpt>
      <trkpt lat="46.11718" lon="4.61429">
        <ele>321</ele>
        <time>2018-03-13T11:26:12Z</time>
      </trkpt>
      <trkpt lat="46.11653" lon="4.61384">
        <ele>315</ele>
        <time>2018-03-13T11:27:12Z</time>
      </trkpt>
      <trkpt lat="46.11585" lon="4.61309">
        <ele>307</ele>
        <time>2018-03-13T11:28:12Z</time>
      </trkpt>
      <trkpt lat="46.11475" lon="4.61313">
        <ele>301</ele>
        <time>2018-03-13T11:29:12Z</time>
      </trkpt>
      <trkpt lat="46.11379" lon="4.61319">
        <ele>295</ele>
        <time>2018-03-13T11:30:12Z</time>
      </trkpt>
      <trkpt lat="46.11287" lon="4.61284">
        <ele>289</ele>
        <time>2018-03-13T11:31:12Z</time>
      </trkpt>
      <trkpt lat="46.11197" lon="4.61225">
        <ele>284</ele>
        <time>2018-03-13T11:32:12Z</time>
      </trkpt>
      <trkpt lat="46.11141" lon="4.61151">
        <ele>283</ele>
        <time>2018-03-13T11:33:12Z</time>
      </trkpt>
      <trkpt lat="46.11069" lon="4.61141">
        <ele>280</ele>
        <time>2018-03-13T11:34:12Z</time>
      </trkpt>
      <trkpt lat="46.11044" lon="4.61131">
        <ele>280</ele>
        <time>2018-03-13T11:35:12Z</time>
      </trkpt>
      <trkpt lat="46.1101" lon="4.61092">
        <ele>280</ele>
        <time>2018-03-13T11:36:12Z</time>
      </trkpt>
      <trkpt lat="46.1097" lon="4.60979">
        <ele>290</ele>
        <time>2018-03-13T11:37:12Z</time>
      </trkpt>
      <trkpt lat="46.11044" lon="4.6085">
        <ele>285</ele>
        <time>2018-03-13T11:38:12Z</time>
      </trkpt>
      <trkpt lat="46.11006" lon="4.60697">
        <ele>295</ele>
        <time>2018-03-13T11:39:12Z</time>
      </trkpt>
      <trkpt lat="46.10977" lon="4.60497">
        <ele>306</ele>
        <time>2018-03-13T11:40:12Z</time>
      </trkpt>
      <trkpt lat="46.10943" lon="4.60416">
        <ele>318</ele>
        <time>2018-03-13T11:41:12Z</time>
      </trkpt>
      <trkpt lat="46.10923" lon="4.60315">
        <ele>329</ele>
        <time>2018-03-13T11:42:12Z</time>
      </trkpt>
      <trkpt lat="46.1097" lon="4.60169">
        <ele>323</ele>
        <time>2018-03-13T11:43:12Z</time>
      </trkpt>
      <trkpt lat="46.10984" lon="4.59985">
        <ele>324</ele>
        <time>2018-03-13T11:44:12Z</time>
      </trkpt>
      <trkpt lat="46.11004" lon="4.59739">
        <ele>317</ele>
        <time>2018-03-13T11:45:12Z</time>
      </trkpt>
      <trkpt lat="46.10997" lon="4.59541">
        <ele>317</ele>
        <time>2018-03-13T11:46:12Z</time>
      </trkpt>
      <trkpt lat="46.1097" lon="4.59276">
        <ele>318</ele>
        <time>2018-03-13T11:47:12Z</time>
      </trkpt>
      <trkpt lat="46.10948" lon="4.5912">
        <ele>317</ele>
        <time>2018-03-13T11:48:12Z</time>
      </trkpt>
      <trkpt lat="46.10876" lon="4.59026">
        <ele>331</ele>
        <time>2018-03-13T11:49:12Z</time>
      </trkpt>
      <trkpt lat="46.10856" lon="4.58955">
        <ele>334</ele>
        <time>2018-03-13T11:50:12Z</time>
      </trkpt>
      <trkpt lat="46.10799" lon="4.58855">
        <ele>341</ele>
        <time>2018-03-13T11:51:12Z</time>
      </trkpt>
      <trkpt lat="46.10822" lon="4.59017">
        <ele>350</ele>
        <time>2018-03-13T11:52:12Z</time>
      </trkpt>
      <trkpt lat="46.10806" lon="4.59195">
        <ele>358</ele>
        <time>2018-03-13T11:53:12Z</time>
      </trkpt>
      <trkpt lat="46.10732" lon="4.5924">
        <ele>379</ele>
        <time>2018-03-13T11:54:12Z</time>
      </trkpt>
      <trkpt lat="46.10649" lon="4.59211">
        <ele>406</ele>
        <time>2018-03-13T11:55:12Z</time>
      </trkpt>
      <trkpt lat="46.10635" lon="4.59292">
        <ele>407</ele>
        <time>2018-03-13T11:56:12Z</time>
      </trkpt>
      <trkpt lat="46.10701" lon="4.59441">
        <ele>412</ele>
        <time>2018-03-13T11:57:12Z</time>
      </trkpt>
      <trkpt lat="46.10707" lon="4.59567">
        <ele>426</ele>
        <time>2018-03-13T11:58:12Z</time>
      </trkpt>
      <trkpt lat="46.10615" lon="4.59447">
        <ele>436</ele>
        <time>2018-03-13T11:59:12Z</time>
      </trkpt>
      <trkpt lat="46.10485" lon="4.59405">
        <ele>468</ele>
        <time>2018-03-13T12:00:12Z</time>
      </trkpt>
      <trkpt lat="46.10397" lon="4.59292">
        <ele>490</ele>
        <time>2018-03-13T12:01:12Z</time>
      </trkpt>
      <trkpt lat="46.10377" lon="4.59185">
        <ele>505</ele>
        <time>2018-03-13T12:02:12Z</time>
      </trkpt>
      <trkpt lat="46.10478" lon="4.58978">
        <ele>476</ele>
        <time>2018-03-13T12:03:12Z</time>
      </trkpt>
      <trkpt lat="46.10348" lon="4.59114">
        <ele>519</ele>
        <time>2018-03-13T12:04:12Z</time>
      </trkpt>
      <trkpt lat="46.10294" lon="4.59237">
        <ele>534</ele>
        <time>2018-03-13T12:05:12Z</time>
      </trkpt>
      <trkpt lat="46.10305" lon="4.59366">
        <ele>526</ele>
        <time>2018-03-13T12:06:12Z</time>
      </trkpt>
      <trkpt lat="46.10353" lon="4.59522">
        <ele>532</ele>
        <time>2018-03-13T12:07:12Z</time>
      </trkpt>
      <trkpt lat="46.10371" lon="4.59655">
        <ele>542</ele>
        <time>2018-03-13T12:08:12Z</time>
      </trkpt>
      <trkpt lat="46.10303" lon="4.59648">
        <ele>542</ele>
        <time>2018-03-13T12:09:12Z</time>
      </trkpt>
      <trkpt lat="46.10252" lon="4.59509">
        <ele>544</ele>
        <time>2018-03-13T12:10:12Z</time>
      </trkpt>
      <trkpt lat="46.10204" lon="4.59428">
        <ele>542</ele>
        <time>2018-03-13T12:11:12Z</time>
      </trkpt>
      <trkpt lat="46.10171" lon="4.59327">
        <ele>557</ele>
        <time>2018-03-13T12:12:12Z</time>
      </trkpt>
      <trkpt lat="46.10148" lon="4.59259">
        <ele>565</ele>
        <time>2018-03-13T12:13:12Z</time>
      </trkpt>
      <trkpt lat="46.10112" lon="4.59227">
        <ele>565</ele>
        <time>2018-03-13T12:14:12Z</time>
      </trkpt>
      <trkpt lat="46.10092" lon="4.59172">
        <ele>561</ele>
        <time>2018-03-13T12:15:12Z</time>
      </trkpt>
      <trkpt lat="46.10045" lon="4.59208">
        <ele>562</ele>
        <time>2018-03-13T12:16:12Z</time>
      </trkpt>
      <trkpt lat="46.09946" lon="4.59208">
        <ele>566</ele>
        <time>2018-03-13T12:17:12Z</time>
      </trkpt>
      <trkpt lat="46.09789" lon="4.59117">
        <ele>571</ele>
        <time>2018-03-13T12:18:12Z</time>
      </trkpt>
      <trkpt lat="46.09677" lon="4.58984">
        <ele>580</ele>
        <time>2018-03-13T12:19:12Z</time>
      </trkpt>
      <trkpt lat="46.09544" lon="4.58942">
        <ele>591</ele>
        <time>2018-03-13T12:20:12Z</time>
      </trkpt>
      <trkpt lat="46.09421" lon="4.58884">
        <ele>600</ele>
        <time>2018-03-13T12:21:12Z</time>
      </trkpt>
      <trkpt lat="46.09385" lon="4.58783">
        <ele>605</ele>
        <time>2018-03-13T12:22:12Z</time>
      </trkpt>
      <trkpt lat="46.09108" lon="4.58751">
        <ele>652</ele>
        <time>2018-03-13T12:23:12Z</time>
      </trkpt>
      <trkpt lat="46.08998" lon="4.58741">
        <ele>668</ele>
        <time>2018-03-13T12:24:12Z</time>
      </trkpt>
      <trkpt lat="46.08971" lon="4.58689">
        <ele>669</ele>
        <time>2018-03-13T12:25:12Z</time>
      </trkpt>
      <trkpt lat="46.08922" lon="4.58634">
        <ele>675</ele>
        <time>2018-03-13T12:26:12Z</time>
      </trkpt>
      <trkpt lat="46.08832" lon="4.58599">
        <ele>683</ele>
        <time>2018-03-13T12:27:12Z</time>
      </trkpt>
      <trkpt lat="46.08778" lon="4.58534">
        <ele>689</ele>
        <time>2018-03-13T12:28:12Z</time>
      </trkpt>
      <trkpt lat="46.08722" lon="4.58434">
        <ele>701</ele>
        <time>2018-03-13T12:29:12Z</time>
      </trkpt>
      <trkpt lat="46.08695" lon="4.5821">
        <ele>688</ele>
        <time>2018-03-13T12:30:12Z</time>
      </trkpt>
      <trkpt lat="46.08646" lon="4.58392">
        <ele>715</ele>
        <time>2018-03-13T12:31:12Z</time>
      </trkpt>
      <trkpt lat="46.08554" lon="4.58392">
        <ele>713</ele>
        <time>2018-03-13T12:32:12Z</time>
      </trkpt>
      <trkpt lat="46.08473" lon="4.58362">
        <ele>703</ele>
        <time>2018-03-13T12:33:12Z</time>
      </trkpt>
      <trkpt lat="46.08396" lon="4.58372">
        <ele>695</ele>
        <time>2018-03-13T12:34:12Z</time>
      </trkpt>
      <trkpt lat="46.08334" lon="4.5845">
        <ele>685</ele>
        <time>2018-03-13T12:35:12Z</time>
      </trkpt>
      <trkpt lat="46.08259" lon="4.58482">
        <ele>673</ele>
        <time>2018-03-13T12:36:12Z</time>
      </trkpt>
      <trkpt lat="46.08232" lon="4.58531">
        <ele>667</ele>
        <time>2018-03-13T12:37:12Z</time>
      </trkpt>
      <trkpt lat="46.08188" lon="4.58576">
        <ele>662</ele>
        <time>2018-03-13T12:38:12Z</time>
      </trkpt>
      <trkpt lat="46.08199" lon="4.5868">
        <ele>648</ele>
        <time>2018-03-13T12:39:12Z</time>
      </trkpt>
      <trkpt lat="46.08241" lon="4.58764">
        <ele>630</ele>
        <time>2018-03-13T12:40:12Z</time>
      </trkpt>
      <trkpt lat="46.08248" lon="4.5889">
        <ele>614</ele>
        <time>2018-03-13T12:41:12Z</time>
      </trkpt>
      <trkpt lat="46.08255" lon="4.59046">
        <ele>595</ele>
        <time>2018-03-13T12:42:12Z</time>
      </trkpt>
      <trkpt lat="46.0823" lon="4.59104">
        <ele>586</ele>
        <time>2018-03-13T12:43:12Z</time>
      </trkpt>
      <trkpt lat="46.08165" lon="4.59117">
        <ele>576</ele>
        <time>2018-03-13T12:44:12Z</time>
      </trkpt>
      <trkpt lat="46.08068" lon="4.59104">
        <ele>564</ele>
        <time>2018-03-13T12:45:12Z</time>
      </trkpt>
      <trkpt lat="46.08019" lon="4.59146">
        <ele>556</ele>
        <time>2018-03-13T12:46:12Z</time>
      </trkpt>
      <trkpt lat="46.07943" lon="4.59178">
        <ele>554</ele>
        <time>2018-03-13T12:47:12Z</time>
      </trkpt>
      <trkpt lat="46.07936" lon="4.59324">
        <ele>558</ele>
        <time>2018-03-13T12:48:12Z</time>
      </trkpt>
      <trkpt lat="46.07907" lon="4.59428">
        <ele>567</ele>
        <time>2018-03-13T12:49:12Z</time>
      </trkpt>
      <trkpt lat="46.07833" lon="4.59531">
        <ele>591</ele>
        <time>2018-03-13T12:50:12Z</time>
      </trkpt>
      <trkpt lat="46.07783" lon="4.59567">
        <ele>593</ele>
        <time>2018-03-13T12:51:12Z</time>
      </trkpt>
      <trkpt lat="46.07723" lon="4.59648">
        <ele>586</ele>
        <time>2018-03-13T12:52:12Z</time>
      </trkpt>
      <trkpt lat="46.07758" lon="4.59732">
        <ele>583</ele>
        <time>2018-03-13T12:53:12Z</time>
      </trkpt>
      <trkpt lat="46.07839" lon="4.59729">
        <ele>582</ele>
        <time>2018-03-13T12:54:12Z</time>
      </trkpt>
      <trkpt lat="46.07891" lon="4.59758">
        <ele>574</ele>
        <time>2018-03-13T12:55:12Z</time>
      </trkpt>
      <trkpt lat="46.07981" lon="4.59804">
        <ele>563</ele>
        <time>2018-03-13T12:56:12Z</time>
      </trkpt>
      <trkpt lat="46.07974" lon="4.59927">
        <ele>565</ele>
        <time>2018-03-13T12:57:12Z</time>
      </trkpt>
      <trkpt lat="46.07916" lon="4.59969">
        <ele>561</ele>
        <time>2018-03-13T12:58:12Z</time>
      </trkpt>
      <trkpt lat="46.07981" lon="4.60137">
        <ele>550</ele>
        <time>2018-03-13T12:59:12Z</time>
      </trkpt>
      <trkpt lat="46.07988" lon="4.60351">
        <ele>545</ele>
        <time>2018-03-13T13:00:12Z</time>
      </trkpt>
      <trkpt lat="46.07954" lon="4.60361">
        <ele>537</ele>
        <time>2018-03-13T13:01:12Z</time>
      </trkpt>
      <trkpt lat="46.07938" lon="4.60545">
        <ele>536</ele>
        <time>2018-03-13T13:02:12Z</time>
      </trkpt>
      <trkpt lat="46.08012" lon="4.60655">
        <ele>550</ele>
        <time>2018-03-13T13:03:12Z</time>
      </trkpt>
      <trkpt lat="46.08116" lon="4.60662">
        <ele>558</ele>
        <time>2018-03-13T13:04:12Z</time>
      </trkpt>
      <trkpt lat="46.0825" lon="4.60652">
        <ele>573</ele>
        <time>2018-03-13T13:05:12Z</time>
      </trkpt>
      <trkpt lat="46.08307" lon="4.60694">
        <ele>571</ele>
        <time>2018-03-13T13:06:12Z</time>
      </trkpt>
      <trkpt lat="46.08349" lon="4.60639">
        <ele>578</ele>
        <time>2018-03-13T13:07:12Z</time>
      </trkpt>
      <trkpt lat="46.08423" lon="4.60772">
        <ele>578</ele>
        <time>2018-03-13T13:08:12Z</time>
      </trkpt>
      <trkpt lat="46.08475" lon="4.60882">
        <ele>585</ele>
        <time>2018-03-13T13:09:12Z</time>
      </trkpt>
      <trkpt lat="46.08605" lon="4.61173">
        <ele>608</ele>
        <time>2018-03-13T13:10:12Z</time>
      </trkpt>
      <trkpt lat="46.08648" lon="4.61335">
        <ele>606</ele>
        <time>2018-03-13T13:11:12Z</time>
      </trkpt>
      <trkpt lat="46.08783" lon="4.61462">
        <ele>600</ele>
        <time>2018-03-13T13:12:12Z</time>
      </trkpt>
      <trkpt lat="46.08877" lon="4.61611">
        <ele>596</ele>
        <time>2018-03-13T13:13:12Z</time>
      </trkpt>
      <trkpt lat="46.08949" lon="4.61653">
        <ele>600</ele>
        <time>2018-03-13T13:14:12Z</time>
      </trkpt>
      <trkpt lat="46.09034" lon="4.61637">
        <ele>601</ele>
        <time>2018-03-13T13:15:12Z</time>
      </trkpt>
      <trkpt lat="46.09124" lon="4.61627">
        <ele>610</ele>
        <time>2018-03-13T13:16:12Z</time>
      </trkpt>
      <trkpt lat="46.09245" lon="4.61578">
        <ele>628</ele>
        <time>2018-03-13T13:17:12Z</time>
      </trkpt>
      <trkpt lat="46.09421" lon="4.61743">
        <ele>607</ele>
        <time>2018-03-13T13:18:12Z</time>
      </trkpt>
      <trkpt lat="46.0954" lon="4.61831">
        <ele>582</ele>
        <time>2018-03-13T13:19:12Z</time>
      </trkpt>
      <trkpt lat="46.0967" lon="4.61912">
        <ele>579</ele>
        <time>2018-03-13T13:20:12Z</time>
      </trkpt>
      <trkpt lat="46.09791" lon="4.62028">
        <ele>580</ele>
        <time>2018-03-13T13:21:12Z</time>
      </trkpt>
      <trkpt lat="46.09903" lon="4.62067">
        <ele>585</ele>
        <time>2018-03-13T13:22:12Z</time>
      </trkpt>
      <trkpt lat="46.09953" lon="4.62135">
        <ele>581</ele>
        <time>2018-03-13T13:23:12Z</time>
      </trkpt>
      <trkpt lat="46.1" lon="4.62219">
        <ele>577</ele>
        <time>2018-03-13T13:24:12Z</time>
      </trkpt>
      <trkpt lat="46.10034" lon="4.62291">
        <ele>569</ele>
        <time>2018-03-13T13:25:12Z</time>
      </trkpt>
      <trkpt lat="46.10121" lon="4.62346">
        <ele>555</ele>
        <time>2018-03-13T13:26:12Z</time>
      </trkpt>
      <trkpt lat="46.10231" lon="4.62339">
        <ele>537</ele>
        <time>2018-03-13T13:27:12Z</time>
      </trkpt>
      <trkpt lat="46.10388" lon="4.62287">
        <ele>519</ele>
        <time>2018-03-13T13:28:12Z</time>
      </trkpt>
      <trkpt lat="46.10492" lon="4.62313">
        <ele>505</ele>
        <time>2018-03-13T13:29:12Z</time>
      </trkpt>
      <trkpt lat="46.10582" lon="4.62284">
        <ele>488</ele>
        <time>2018-03-13T13:30:12Z</time>
      </trkpt>
      <trkpt lat="46.10651" lon="4.6232">
        <ele>472</ele>
        <time>2018-03-13T13:31:12Z</time>
      </trkpt>
      <trkpt lat="46.10748" lon="4.6233">
        <ele>442</ele>
        <time>2018-03-13T13:32:12Z</time>
      </trkpt>
      <trkpt lat="46.10763" lon="4.62462">
        <ele>433</ele>
        <time>2018-03-13T13:33:12Z</time>
      </trkpt>
      <trkpt lat="46.10927" lon="4.62498">
        <ele>411</ele>
        <time>2018-03-13T13:34:12Z</time>
      </trkpt>
      <trkpt lat="46.10979" lon="4.6266">
        <ele>387</ele>
        <time>2018-03-13T13:35:12Z</time>
      </trkpt>
      <trkpt lat="46.11028" lon="4.62712">
        <ele>366</ele>
        <time>2018-03-13T13:36:12Z</time>
      </trkpt>
      <trkpt lat="46.11031" lon="4.62812">
        <ele>354</ele>
        <time>2018-03-13T13:37:12Z</time>
      </trkpt>
      <trkpt lat="46.11031" lon="4.62916">
        <ele>343</ele>
        <time>2018-03-13T13:38:12Z</time>
      </trkpt>
      <trkpt lat="46.11107" lon="4.63065">
        <ele>322</ele>
        <time>2018-03-13T13:39:12Z</time>
      </trkpt>
      <trkpt lat="46.11161" lon="4.63165">
        <ele>317</ele>
        <time>2018-03-13T13:40:12Z</time>
      </trkpt>
      <trkpt lat="46.11226" lon="4.62993">
        <ele>306</ele>
        <time>2018-03-13T13:41:12Z</time>
      </trkpt>
      <trkpt lat="46.11244" lon="4.62857">
        <ele>298</ele>
        <time>2018-03-13T13:42:12Z</time>
      </trkpt>
      <trkpt lat="46.11208" lon="4.62754">
        <ele>301</ele>
        <time>2018-03-13T13:43:12Z</time>
      </trkpt>
      <trkpt lat="46.11197" lon="4.62547">
        <ele>294</ele>
        <time>2018-03-13T13:44:12Z</time>
      </trkpt>
      <trkpt lat="46.11269" lon="4.62708">
        <ele>275</ele>
        <time>2018-03-13T13:45:12Z</time>
      </trkpt>
      <trkpt lat="46.1126" lon="4.6256">
        <ele>273</ele>
        <time>2018-03-13T13:46:12Z</time>
      </trkpt>
      <trkpt lat="46.11271" lon="4.62436">
        <ele>273</ele>
        <time>2018-03-13T13:47:12Z</time>
      </trkpt>
      <trkpt lat="46.11329" lon="4.62343">
        <ele>263</ele>
        <time>2018-03-13T13:48:12Z</time>
      </trkpt>
      <trkpt lat="46.11437" lon="4.623">
        <ele>263</ele>
        <time>2018-03-13T13:49:12Z</time>
      </trkpt>
      <trkpt lat="46.11367" lon="4.62074">
        <ele>266</ele>
        <time>2018-03-13T13:50:12Z</time>
      </trkpt>
      <trkpt lat="46.11435" lon="4.61996">
        <ele>276</ele>
        <time>2018-03-13T13:51:12Z</time>
      </trkpt>
      <trkpt lat="46.11556" lon="4.61889">
        <ele>286</ele>
        <time>2018-03-13T13:52:12Z</time>
      </trkpt>
      <trkpt lat="46.1172" lon="4.6173">
        <ele>302</ele>
        <time>2018-03-13T13:53:12Z</time>
      </trkpt>
      <trkpt lat="46.11828" lon="4.61786">
        <ele>302</ele>
        <time>2018-03-13T13:54:12Z</time>
      </trkpt>
      <trkpt lat="46.1186" lon="4.61583">
        <ele>318</ele>
        <time>2018-03-13T13:55:12Z</time>
      </trkpt>
    </trkseg>
  </trk>
</gpx>